메인 페이지
METAR-TAF:

METAR-TAF

공항 :

르이, 타이

위도: 17-27N, 경도: 101-44E, 고도: 253m

현재 날씨관측

예보는 3 시간 32분 전, 12:00시(UTC)에 발표되었습니다.
여러 방향의 바람 2kt
온도 27°C
습도 84%
기압 1006 hPa
시정: 9000m
고도 2000ft 상공 구름 보통
고도 7000ft 상공 구름 보통

METAR: VTUL 201200Z VRB02KT 9000 SCT020 SCT070 27/24 Q1006 NOSIG

시각: 22:32 (15:32 UTC)

예보

예보는 4 시간 32분 전, 11:00시(UTC)에 발표되었습니다.
예보 대상 시간: 20일 12시부터 21일 12시까지 (UTC)
서남서5kt
시정: 9000m
고도 2500ft 상공 구름 보통
전환 중
20일 20시부터 20일 22시까지 (UTC)
kt
시정: 3000m
박무
전환 중
21일 00시부터 21일 02시까지 (UTC)
여러 방향의 바람 2kt
시정: 9000m
고도 2000ft 상공 구름 많음
일시적
21일 03시부터 21일 06시까지 (UTC)
여러 방향의 바람 15kt
시정: 5000m
고도 1800ft 상공 구름 조금, 적란운.
고도 2000ft 상공 구름 많음
뇌우, 비

TAF: VTUL 201100Z 2012/2112 24005KT 9000 SCT025 BECMG 2020/2022 00000KT 3000 BR NSC BECMG 2100/2102 VRB02KT 9000 NSW BKN020 TEMPO 2103/2106 VRB15KT 5000 TSRA FEW018CB BKN020

4,000개 이상의 공항 관측 자료 및 예보 (METAR 및 TAF 보고).

지도상에서 검색 가능한 기상관측소가 노란 점과 빨간 점으로 표시되어 있습니다.

기상관측소 명을 보려면 표시 위로 마우스를 이동하세요.

날씨 관측과 예보를 보려면 클릭하세요.

지도 변경 : 확대하려면 엑스 표시가 있는 녹색 버튼, 축소하려면 빼기 표시가 있는 녹색 버튼, 다음 페이지의 지도를 보려면 녹색 화살표를 클릭하세요.


METAR-TAF: